Time;durP1;ratioP1;P1;durP2;ratioP2;P2;SDS_P1;SDS_P2;PMS_P1;PMS_P2;Temp;Humidity;BMP_temperature;BMP_pressure;BME280_temperature;BME280_humidity;BME280_pressure;Samples;Min_cycle;Max_cycle;Signal;HPM_P1;HPM_P2
2021/06/14 00:01:58;;;;;;;5.10;2.00;;;;;;;;;;5110221;28;20030;-68
2021/06/14 00:04:25;;;;;;;5.60;1.90;;;;;;;;;;5109171;28;20073;-69
2021/06/14 00:06:51;;;;;;;6.55;2.70;;;;;;;;;;5110352;28;20020;-68
2021/06/14 00:09:21;;;;;;;3.83;2.53;;;;;;;;;;5108641;28;20027;-68
2021/06/14 00:11:47;;;;;;;4.50;2.47;;;;;;;;;;5110316;28;20016;-68
2021/06/14 00:14:14;;;;;;;3.63;2.60;;;;;;;;;;5108910;28;20051;-68
2021/06/14 00:16:40;;;;;;;8.95;3.03;;;;;;;;;;5109809;28;20472;-68
2021/06/14 00:19:07;;;;;;;8.13;3.30;;;;;;;;;;5110287;28;20020;-68
2021/06/14 00:21:33;;;;;;;6.30;2.45;;;;;;;;;;5110277;28;20023;-69
2021/06/14 00:23:59;;;;;;;5.22;2.80;;;;;;;;;;5109715;28;20020;-69
2021/06/14 00:26:26;;;;;;;5.57;3.08;;;;;;;;;;5109974;28;20031;-69
2021/06/14 00:28:52;;;;;;;5.30;2.13;;;;;;;;;;5109990;28;20020;-69
2021/06/14 00:31:18;;;;;;;5.72;3.08;;;;;;;;;;5108310;28;20068;-69
2021/06/14 00:34:30;;;;;;;5.13;2.72;;;;;;;;;;5126387;27;20377;-68
2021/06/14 00:37:25;;;;;;;7.45;2.60;;;;;;;;;;5125950;27;20381;-68
2021/06/14 00:39:51;;;;;;;4.20;2.42;;;;;;;;;;5110653;28;20479;-68
2021/06/14 00:42:17;;;;;;;8.20;2.42;;;;;;;;;;5110615;28;20047;-68
2021/06/14 00:45:16;;;;;;;3.58;2.13;;;;;;;;;;5126015;27;20374;-68
2021/06/14 00:48:35;;;;;;;4.60;2.28;;;;;;;;;;5129864;27;20119;-68
2021/06/14 00:51:03;;;;;;;5.70;2.35;;;;;;;;;;5129615;28;20055;-68
2021/06/14 00:53:31;;;;;;;5.95;2.40;;;;;;;;;;5130568;27;20529;-68
2021/06/14 00:55:58;;;;;;;5.00;2.25;;;;;;;;;;5130836;28;20027;-68
2021/06/14 00:58:25;;;;;;;5.68;2.20;;;;;;;;;;5129195;28;20498;-68
2021/06/14 01:01:55;;;;;;;5.07;1.80;;;;;;;;;;5126581;27;20381;-68
2021/06/14 01:04:21;;;;;;;5.45;2.20;;;;;;;;;;5110539;28;20031;-68
2021/06/14 01:07:51;;;;;;;5.35;2.50;;;;;;;;;;5126427;27;20373;-68
2021/06/14 01:12:33;;;;;;;8.52;2.22;;;;;;;;;;5125982;27;20385;-68
2021/06/14 01:15:04;;;;;;;6.18;1.90;;;;;;;;;;5109201;28;20125;-68
2021/06/14 01:17:42;;;;;;;3.65;1.75;;;;;;;;;;5110454;28;20099;-68
2021/06/14 01:20:27;;;;;;;3.17;2.10;;;;;;;;;;5110174;28;20479;-68
2021/06/14 01:24:36;;;;;;;2.83;1.88;;;;;;;;;;5126389;27;20404;-69
2021/06/14 01:27:04;;;;;;;12.98;2.40;;;;;;;;;;5110092;28;20030;-68
2021/06/14 01:30:52;;;;;;;5.35;2.15;;;;;;;;;;5126592;27;20859;-68
2021/06/14 01:33:21;;;;;;;3.65;1.67;;;;;;;;;;5109115;28;20036;-68
2021/06/14 01:35:49;;;;;;;5.45;2.15;;;;;;;;;;5110433;28;20031;-68
2021/06/14 01:38:16;;;;;;;3.83;1.77;;;;;;;;;;5110453;28;20023;-68
2021/06/14 01:42:52;;;;;;;6.05;1.80;;;;;;;;;;5126526;27;20737;-68
2021/06/14 01:45:19;;;;;;;6.38;1.88;;;;;;;;;;5110527;28;20031;-68
2021/06/14 01:47:46;;;;;;;7.68;2.33;;;;;;;;;;5110025;28;20110;-68
2021/06/14 01:51:54;;;;;;;4.63;1.70;;;;;;;;;;5126371;27;20906;-68
2021/06/14 01:54:20;;;;;;;5.97;1.88;;;;;;;;;;5110461;28;20497;-68
2021/06/14 01:56:49;;;;;;;4.78;2.13;;;;;;;;;;5108751;28;20019;-68
2021/06/14 01:59:19;;;;;;;3.47;2.05;;;;;;;;;;5110494;28;20024;-68
2021/06/14 02:01:47;;;;;;;3.67;1.80;;;;;;;;;;5110198;28;20038;-68
2021/06/14 02:04:13;;;;;;;4.20;2.00;;;;;;;;;;5109163;28;20024;-68
2021/06/14 02:06:44;;;;;;;4.30;1.52;;;;;;;;;;5110323;28;20087;-68
2021/06/14 02:09:11;;;;;;;6.20;2.10;;;;;;;;;;5108640;28;20040;-68
2021/06/14 02:11:40;;;;;;;5.18;2.25;;;;;;;;;;5110072;28;20063;-68
2021/06/14 02:14:06;;;;;;;3.40;1.98;;;;;;;;;;5110037;28;20019;-68
2021/06/14 02:17:04;;;;;;;7.70;1.60;;;;;;;;;;5125893;27;20385;-68
2021/06/14 02:21:56;;;;;;;4.55;2.33;;;;;;;;;;5133467;27;20118;-68
2021/06/14 02:26:33;;;;;;;3.50;1.98;;;;;;;;;;5126241;27;20404;-68
2021/06/14 02:28:59;;;;;;;4.97;1.80;;;;;;;;;;5110339;28;20039;-68
2021/06/14 02:31:25;;;;;;;6.53;2.03;;;;;;;;;;5109877;28;20044;-68
2021/06/14 02:33:51;;;;;;;4.70;1.88;;;;;;;;;;5109061;28;20027;-68
2021/06/14 02:37:54;;;;;;;6.10;1.90;;;;;;;;;;5125782;27;20384;-68
2021/06/14 02:40:23;;;;;;;11.70;1.80;;;;;;;;;;5109237;28;20100;-68
2021/06/14 02:42:49;;;;;;;3.03;1.60;;;;;;;;;;5110528;28;20027;-68
2021/06/14 02:45:15;;;;;;;5.70;1.70;;;;;;;;;;5109936;28;20499;-68
2021/06/14 02:47:42;;;;;;;4.55;1.42;;;;;;;;;;5110141;28;20016;-68
2021/06/14 02:50:10;;;;;;;7.38;1.58;;;;;;;;;;5108884;28;20034;-68
2021/06/14 02:52:37;;;;;;;7.15;2.10;;;;;;;;;;5109749;28;20023;-68
2021/06/14 02:56:17;;;;;;;5.72;1.88;;;;;;;;;;5126166;27;20875;-68
2021/06/14 02:58:45;;;;;;;2.20;1.52;;;;;;;;;;5109954;28;20038;-68
2021/06/14 03:01:11;;;;;;;3.80;1.80;;;;;;;;;;5109130;28;20020;-68
2021/06/14 03:03:49;;;;;;;5.80;2.40;;;;;;;;;;5126393;27;20863;-68
2021/06/14 03:08:09;;;;;;;3.83;2.10;;;;;;;;;;5126370;27;20376;-68
2021/06/14 03:13:48;;;;;;;5.25;2.40;;;;;;;;;;5125811;27;20373;-68
2021/06/14 03:20:31;;;;;;;5.72;2.15;;;;;;;;;;5125869;27;20381;-68
2021/06/14 03:22:58;;;;;;;7.03;2.03;;;;;;;;;;5110587;28;20028;-68
2021/06/14 03:27:47;;;;;;;3.85;1.92;;;;;;;;;;5125641;27;20388;-68
2021/06/14 03:30:15;;;;;;;5.28;1.80;;;;;;;;;;5110355;28;20391;-68
2021/06/14 03:32:42;;;;;;;3.65;1.80;;;;;;;;;;5110362;28;20433;-68
2021/06/14 03:38:24;;;;;;;3.88;2.03;;;;;;;;;;5126240;27;20380;-68
2021/06/14 03:40:51;;;;;;;6.85;2.25;;;;;;;;;;5108932;28;20118;-68
2021/06/14 03:45:51;;;;;;;5.28;1.90;;;;;;;;;;5126278;27;20380;-68
2021/06/14 03:50:04;;;;;;;4.93;1.70;;;;;;;;;;5126265;27;20377;-68
2021/06/14 03:53:59;;;;;;;4.85;1.60;;;;;;;;;;5126267;27;20377;-69
2021/06/14 03:56:26;;;;;;;4.32;2.03;;;;;;;;;;5109029;28;20043;-68
2021/06/14 03:58:52;;;;;;;4.22;1.65;;;;;;;;;;5110394;28;20028;-68
2021/06/14 04:01:19;;;;;;;4.22;1.73;;;;;;;;;;5110052;28;20034;-68
2021/06/14 04:03:53;;;;;;;10.63;2.22;;;;;;;;;;5110332;28;20024;-68
2021/06/14 04:07:19;;;;;;;5.38;2.30;;;;;;;;;;5126147;27;20376;-68
2021/06/14 04:12:41;;;;;;;4.68;1.85;;;;;;;;;;5126257;27;20373;-68
2021/06/14 04:15:07;;;;;;;5.38;2.10;;;;;;;;;;5109941;28;20110;-68
2021/06/14 04:17:34;;;;;;;4.13;2.25;;;;;;;;;;5109040;28;20081;-68
2021/06/14 04:20:23;;;;;;;7.20;2.17;;;;;;;;;;5126236;27;20387;-68
2021/06/14 04:22:51;;;;;;;3.25;1.73;;;;;;;;;;5108902;28;20111;-68
2021/06/14 04:25:17;;;;;;;4.68;1.90;;;;;;;;;;5110324;28;20527;-71
2021/06/14 04:27:44;;;;;;;3.90;1.90;;;;;;;;;;5110314;28;20481;-69
2021/06/14 04:30:11;;;;;;;5.00;2.08;;;;;;;;;;5108474;28;20031;-69
2021/06/14 04:33:40;;;;;;;4.15;2.20;;;;;;;;;;5126085;27;20385;-68
2021/06/14 04:37:43;;;;;;;3.97;1.92;;;;;;;;;;5125748;27;20388;-69
2021/06/14 04:40:10;;;;;;;3.67;1.80;;;;;;;;;;5110345;28;20035;-68
2021/06/14 04:42:36;;;;;;;4.15;1.85;;;;;;;;;;5110492;28;20035;-68
2021/06/14 04:45:03;;;;;;;4.65;1.90;;;;;;;;;;5110003;28;20094;-68
2021/06/14 04:51:07;;;;;;;5.00;1.88;;;;;;;;;;5129072;27;20134;-68
2021/06/14 04:55:53;;;;;;;5.65;2.17;;;;;;;;;;5126111;27;20372;-68
2021/06/14 04:59:38;;;;;;;4.03;1.65;;;;;;;;;;5132760;27;20115;-68
2021/06/14 05:02:04;;;;;;;3.97;1.70;;;;;;;;;;5112693;28;20028;-65
2021/06/14 05:04:31;;;;;;;4.43;1.58;;;;;;;;;;5112192;28;20595;-64
2021/06/14 05:08:34;;;;;;;3.03;1.60;;;;;;;;;;5126196;27;20460;-65
2021/06/14 05:11:01;;;;;;;4.22;1.73;;;;;;;;;;5110368;28;20529;-65
2021/06/14 05:15:27;;;;;;;4.50;2.00;;;;;;;;;;5123187;27;20876;-64
2021/06/14 05:17:53;;;;;;;3.53;1.42;;;;;;;;;;5109070;28;20038;-64
2021/06/14 05:20:19;;;;;;;5.93;1.65;;;;;;;;;;5109241;28;20038;-65
2021/06/14 05:23:56;;;;;;;6.57;1.70;;;;;;;;;;5123809;27;20860;-64
2021/06/14 05:26:22;;;;;;;4.85;1.90;;;;;;;;;;5108631;28;20032;-65
2021/06/14 05:28:48;;;;;;;3.08;1.60;;;;;;;;;;5107703;28;20020;-64
2021/06/14 05:31:14;;;;;;;3.30;1.60;;;;;;;;;;5106949;28;20494;-64
2021/06/14 05:37:53;;;;;;;3.25;1.77;;;;;;;;;;5125177;27;20369;-65
2021/06/14 05:40:20;;;;;;;3.30;1.67;;;;;;;;;;5109835;28;20024;-64
2021/06/14 05:42:47;;;;;;;9.30;1.85;;;;;;;;;;5109217;28;20024;-64
2021/06/14 05:45:24;;;;;;;3.97;2.13;;;;;;;;;;5124994;27;20392;-64
2021/06/14 05:47:51;;;;;;;5.07;1.90;;;;;;;;;;5105754;28;20384;-64
2021/06/14 05:50:17;;;;;;;3.53;1.80;;;;;;;;;;5106095;28;20672;-63
2021/06/14 05:54:20;;;;;;;4.97;2.00;;;;;;;;;;5125335;27;20369;-63
2021/06/14 06:02:37;;;;;;;6.07;2.08;;;;;;;;;;5125349;27;20380;-63
2021/06/14 06:06:08;;;;;;;5.95;1.75;;;;;;;;;;5125831;27;20376;-64
2021/06/14 06:08:34;;;;;;;4.97;1.98;;;;;;;;;;5108373;28;20027;-65
2021/06/14 06:13:01;;;;;;;14.07;2.00;;;;;;;;;;5120972;27;20385;-64
2021/06/14 06:15:27;;;;;;;3.65;1.63;;;;;;;;;;5107544;28;20028;-65
2021/06/14 06:18:47;;;;;;;2.38;1.65;;;;;;;;;;5130952;27;20198;-64
2021/06/14 06:21:32;;;;;;;5.82;1.48;;;;;;;;;;5124817;27;20381;-64
2021/06/14 06:23:59;;;;;;;10.77;2.08;;;;;;;;;;5105761;28;20039;-64
2021/06/14 06:26:26;;;;;;;4.20;1.83;;;;;;;;;;5104456;28;20020;-65
2021/06/14 06:28:52;;;;;;;3.40;1.98;;;;;;;;;;5105986;28;20487;-66
2021/06/14 06:33:20;;;;;;;4.35;1.98;;;;;;;;;;5145919;27;20426;-65
2021/06/14 06:37:56;;;;;;;3.95;1.88;;;;;;;;;;5125529;27;20377;-70
2021/06/14 06:40:50;;;;;;;5.93;2.38;;;;;;;;;;5124746;27;20409;-68
2021/06/14 06:43:17;;;;;;;7.85;3.15;;;;;;;;;;5108310;28;20030;-69
2021/06/14 06:46:26;;;;;;;3.90;1.60;;;;;;;;;;5123670;27;20749;-68
2021/06/14 06:49:25;;;;;;;10.68;2.25;;;;;;;;;;5124133;27;20373;-69
2021/06/14 06:53:02;;;;;;;4.20;1.92;;;;;;;;;;5123459;27;20480;-69
2021/06/14 06:56:12;;;;;;;3.97;1.83;;;;;;;;;;5113736;27;20370;-68
2021/06/14 06:59:24;;;;;;;4.75;1.70;;;;;;;;;;5123576;27;20377;-69
2021/06/14 07:02:11;;;;;;;3.38;1.60;;;;;;;;;;5125948;27;20864;-69
2021/06/14 07:04:37;;;;;;;6.15;1.95;;;;;;;;;;5108240;28;20020;-67
2021/06/14 07:07:04;;;;;;;3.67;1.30;;;;;;;;;;5098313;28;20121;-67
2021/06/14 07:09:30;;;;;;;5.35;1.88;;;;;;;;;;5108594;28;20554;-68
2021/06/14 07:11:57;;;;;;;3.60;1.77;;;;;;;;;;5108042;28;20030;-67
2021/06/14 07:16:12;;;;;;;3.63;1.77;;;;;;;;;;5124206;27;20369;-68
2021/06/14 07:18:38;;;;;;;12.52;2.28;;;;;;;;;;5107145;28;20115;-68
2021/06/14 07:21:04;;;;;;;3.25;1.50;;;;;;;;;;5107073;28;20024;-69
2021/06/14 07:23:30;;;;;;;5.57;1.73;;;;;;;;;;5108035;28;20020;-66
2021/06/14 07:27:32;;;;;;;5.30;1.83;;;;;;;;;;5144583;27;20395;-67
2021/06/14 07:33:45;;;;;;;6.32;2.10;;;;;;;;;;5123159;27;21157;-66
2021/06/14 07:36:39;;;;;;;3.40;1.88;;;;;;;;;;5123152;27;20396;-65
2021/06/14 07:39:34;;;;;;;4.82;1.67;;;;;;;;;;5122122;27;20466;-71
2021/06/14 07:42:00;;;;;;;3.85;1.80;;;;;;;;;;5107800;28;20036;-68
2021/06/14 07:45:42;;;;;;;4.35;1.95;;;;;;;;;;5121321;27;20377;-70
2021/06/14 07:48:08;;;;;;;5.65;1.80;;;;;;;;;;5105863;28;20027;-69
2021/06/14 07:51:47;;;;;;;4.53;1.90;;;;;;;;;;5125345;27;20369;-69
2021/06/14 07:54:13;;;;;;;4.43;1.83;;;;;;;;;;5103922;28;20044;-69
2021/06/14 07:57:08;;;;;;;3.22;1.80;;;;;;;;;;5125427;27;21070;-69
2021/06/14 07:59:35;;;;;;;3.47;1.92;;;;;;;;;;5102692;28;20043;-68
2021/06/14 08:02:47;;;;;;;4.57;1.90;;;;;;;;;;5124015;27;20380;-68
2021/06/14 08:05:14;;;;;;;3.75;1.65;;;;;;;;;;5107431;28;20020;-68
2021/06/14 08:07:41;;;;;;;6.22;2.05;;;;;;;;;;5107663;28;20054;-68
2021/06/14 08:10:09;;;;;;;2.33;1.58;;;;;;;;;;5104078;28;20024;-67
2021/06/14 08:12:43;;;;;;;3.75;1.60;;;;;;;;;;5105700;28;20031;-68
2021/06/14 08:15:09;;;;;;;4.80;2.10;;;;;;;;;;5107078;28;20012;-68
2021/06/14 08:17:36;;;;;;;4.38;1.60;;;;;;;;;;5107798;28;20023;-68
2021/06/14 08:25:10;;;;;;;4.95;1.90;;;;;;;;;;5106723;28;20024;-69
2021/06/14 08:27:37;;;;;;;3.00;1.48;;;;;;;;;;5106144;28;20016;-68
2021/06/14 08:30:06;;;;;;;2.38;1.30;;;;;;;;;;5104453;28;20027;-68
2021/06/14 08:34:03;;;;;;;4.38;1.75;;;;;;;;;;5141730;27;20898;-69
2021/06/14 08:37:39;;;;;;;3.60;1.92;;;;;;;;;;5128730;27;20537;-69
2021/06/14 08:43:03;;;;;;;5.38;2.17;;;;;;;;;;5123372;27;20377;-69
2021/06/14 08:45:30;;;;;;;6.43;2.03;;;;;;;;;;5107478;28;20491;-69
2021/06/14 08:48:49;;;;;;;7.18;1.77;;;;;;;;;;5116744;27;20792;-69
2021/06/14 08:51:15;;;;;;;5.18;1.85;;;;;;;;;;5105813;28;20414;-68
2021/06/14 08:53:42;;;;;;;4.60;1.90;;;;;;;;;;5108010;28;20365;-70
2021/06/14 08:56:08;;;;;;;3.70;1.75;;;;;;;;;;5107396;28;20107;-69
2021/06/14 08:58:34;;;;;;;2.75;1.50;;;;;;;;;;5105954;28;20062;-70
2021/06/14 09:03:01;;;;;;;3.50;1.63;;;;;;;;;;5124554;27;20389;-72
2021/06/14 09:05:28;;;;;;;6.75;1.73;;;;;;;;;;5107307;28;20379;-67
2021/06/14 09:08:00;;;;;;;2.92;1.70;;;;;;;;;;5108506;28;20027;-71
2021/06/14 09:10:28;;;;;;;3.90;1.90;;;;;;;;;;5108861;28;20027;-72
2021/06/14 09:12:54;;;;;;;3.90;1.88;;;;;;;;;;5108557;28;20027;-72
2021/06/14 09:15:25;;;;;;;3.50;1.70;;;;;;;;;;5109846;28;20023;-73
2021/06/14 09:17:54;;;;;;;8.63;2.50;;;;;;;;;;5109620;28;20367;-74
2021/06/14 09:20:21;;;;;;;6.80;2.92;;;;;;;;;;5108603;28;20492;-73
2021/06/14 09:22:47;;;;;;;7.13;1.80;;;;;;;;;;5109551;28;20046;-73
2021/06/14 09:25:15;;;;;;;4.72;1.60;;;;;;;;;;5108238;28;20107;-70
2021/06/14 09:27:50;;;;;;;5.60;1.98;;;;;;;;;;5108564;28;20028;-73
2021/06/14 09:30:19;;;;;;;6.35;1.83;;;;;;;;;;5107963;28;20031;-74
2021/06/14 09:32:52;;;;;;;5.80;2.05;;;;;;;;;;5107523;28;20024;-74
2021/06/14 09:35:18;;;;;;;;;;;;;;;;;;5108371;28;20541;-72
2021/06/14 09:37:54;;;;;;;3.00;1.90;;;;;;;;;;5106677;28;19904;-74
2021/06/14 09:40:28;;;;;;;6.90;3.05;;;;;;;;;;5107883;28;20091;-71
2021/06/14 09:42:54;;;;;;;2.67;1.80;;;;;;;;;;5109064;28;20044;-71
2021/06/14 09:45:23;;;;;;;7.57;2.47;;;;;;;;;;5109588;28;20023;-70
2021/06/14 09:47:52;;;;;;;3.67;1.77;;;;;;;;;;5107848;28;20488;-72
2021/06/14 09:50:23;;;;;;;4.28;1.70;;;;;;;;;;5109281;28;20454;-71
2021/06/14 09:53:05;;;;;;;7.88;1.98;;;;;;;;;;5107682;28;20063;-72
2021/06/14 09:56:14;;;;;;;4.00;1.60;;;;;;;;;;5120160;27;20864;-71
2021/06/14 09:58:41;;;;;;;5.90;2.00;;;;;;;;;;5090863;28;20047;-72
2021/06/14 10:01:07;;;;;;;6.10;2.38;;;;;;;;;;5103578;28;20115;-74
2021/06/14 10:04:00;;;;;;;4.43;1.60;;;;;;;;;;5100799;28;20024;-73
2021/06/14 10:06:29;;;;;;;5.28;1.70;;;;;;;;;;5101235;28;20043;-73
2021/06/14 10:08:55;;;;;;;6.90;1.40;;;;;;;;;;5089443;28;20024;-73
2021/06/14 10:11:43;;;;;;;2.63;1.40;;;;;;;;;;5124812;27;20381;-74
2021/06/14 10:14:27;;;;;;;2.88;1.30;;;;;;;;;;5108706;28;20639;-73
2021/06/14 10:17:04;;;;;;;6.22;1.65;;;;;;;;;;5109916;28;20024;-73
2021/06/14 10:19:30;;;;;;;4.80;1.90;;;;;;;;;;5107165;28;20081;-73
2021/06/14 10:21:56;;;;;;;3.53;1.35;;;;;;;;;;5107245;28;20061;-71
2021/06/14 10:24:22;;;;;;;4.95;1.58;;;;;;;;;;5102420;28;20712;-71
2021/06/14 10:26:51;;;;;;;7.43;2.08;;;;;;;;;;5104346;28;20031;-71
2021/06/14 10:29:17;;;;;;;3.17;1.98;;;;;;;;;;5099423;28;20085;-71
2021/06/14 10:31:45;;;;;;;3.45;1.70;;;;;;;;;;5104811;28;20096;-71
2021/06/14 10:34:12;;;;;;;2.55;1.50;;;;;;;;;;5107642;28;20044;-69
2021/06/14 10:36:40;;;;;;;6.43;1.50;;;;;;;;;;5107231;28;20206;-71
2021/06/14 10:39:06;;;;;;;5.80;1.60;;;;;;;;;;5107416;28;20073;-71
2021/06/14 10:41:32;;;;;;;4.63;1.77;;;;;;;;;;5106642;28;20099;-71
2021/06/14 10:43:59;;;;;;;4.22;2.35;;;;;;;;;;5106415;28;20107;-72
2021/06/14 10:46:26;;;;;;;3.67;1.77;;;;;;;;;;5107658;28;20020;-71
2021/06/14 10:49:02;;;;;;;4.85;1.80;;;;;;;;;;5108158;28;20080;-71
2021/06/14 10:51:32;;;;;;;6.88;1.92;;;;;;;;;;5106666;28;20111;-72
2021/06/14 10:54:06;;;;;;;3.00;1.73;;;;;;;;;;5107442;28;20047;-71
2021/06/14 10:56:33;;;;;;;3.20;2.28;;;;;;;;;;5108672;28;20026;-71
2021/06/14 10:59:00;;;;;;;3.78;1.50;;;;;;;;;;5109023;28;20028;-71
2021/06/14 11:01:46;;;;;;;4.43;1.67;;;;;;;;;;5108978;28;20480;-71
2021/06/14 11:04:26;;;;;;;2.78;1.70;;;;;;;;;;5108546;28;20066;-73
2021/06/14 11:06:54;;;;;;;3.25;1.70;;;;;;;;;;5108602;28;20020;-74
2021/06/14 11:09:44;;;;;;;4.05;1.50;;;;;;;;;;5125723;27;20785;-72
2021/06/14 11:12:12;;;;;;;6.88;1.77;;;;;;;;;;5109551;28;20803;-72
2021/06/14 11:14:43;;;;;;;4.75;2.50;;;;;;;;;;5103922;28;20028;-71
2021/06/14 11:17:18;;;;;;;4.00;1.60;;;;;;;;;;5109055;28;20028;-71
2021/06/14 11:19:59;;;;;;;8.45;3.00;;;;;;;;;;5107275;28;20020;-71
2021/06/14 11:22:34;;;;;;;8.50;4.68;;;;;;;;;;5107669;28;20038;-72
2021/06/14 11:25:00;;;;;;;2.92;1.38;;;;;;;;;;5102874;28;20035;-72
2021/06/14 11:27:37;;;;;;;2.78;1.33;;;;;;;;;;5102971;28;20529;-72
2021/06/14 11:30:11;;;;;;;15.93;2.83;;;;;;;;;;5107844;28;20492;-72
2021/06/14 11:32:38;;;;;;;3.88;1.60;;;;;;;;;;5108610;28;20035;-71
2021/06/14 11:35:05;;;;;;;2.78;1.40;;;;;;;;;;5109742;28;20141;-73
2021/06/14 11:37:45;;;;;;;4.65;1.67;;;;;;;;;;5109547;28;20028;-72
2021/06/14 11:40:12;;;;;;;5.53;1.63;;;;;;;;;;5108664;28;20487;-73
2021/06/14 11:42:43;;;;;;;4.18;1.77;;;;;;;;;;5109141;28;20136;-72
2021/06/14 11:45:20;;;;;;;3.03;1.70;;;;;;;;;;5107862;28;20062;-72
2021/06/14 11:47:46;;;;;;;4.38;1.67;;;;;;;;;;5107721;28;20027;-73
2021/06/14 11:50:13;;;;;;;6.00;1.92;;;;;;;;;;5106552;28;20495;-74
2021/06/14 11:52:39;;;;;;;2.00;1.52;;;;;;;;;;5106520;28;20036;-73
2021/06/14 11:55:05;;;;;;;5.82;1.50;;;;;;;;;;5108928;28;20035;-73
2021/06/14 11:57:36;;;;;;;6.85;1.50;;;;;;;;;;5108874;28;20043;-73
2021/06/14 12:00:04;;;;;;;4.07;1.50;;;;;;;;;;5108761;28;20093;-74
2021/06/14 12:02:30;;;;;;;2.83;1.50;;;;;;;;;;5108873;28;20016;-72
2021/06/14 12:04:58;;;;;;;3.97;1.50;;;;;;;;;;5108582;28;20028;-75
2021/06/14 12:07:33;;;;;;;5.43;1.83;;;;;;;;;;5108100;28;20081;-72
2021/06/14 12:10:00;;;;;;;2.97;1.25;;;;;;;;;;5109012;28;20027;-73
2021/06/14 12:12:26;;;;;;;1.92;1.05;;;;;;;;;;5108993;28;20084;-74
2021/06/14 12:14:53;;;;;;;3.15;1.10;;;;;;;;;;5108267;28;20028;-75
2021/06/14 12:17:33;;;;;;;3.50;1.08;;;;;;;;;;5109046;28;20095;-74
2021/06/14 12:20:00;;;;;;;2.42;1.05;;;;;;;;;;5100263;28;20536;-72
2021/06/14 12:22:27;;;;;;;2.08;0.98;;;;;;;;;;5094516;28;20526;-74
2021/06/14 12:24:53;;;;;;;2.60;1.15;;;;;;;;;;5095231;28;20024;-76
2021/06/14 12:27:20;;;;;;;1.98;1.05;;;;;;;;;;5094195;28;20038;-74
2021/06/14 12:29:54;;;;;;;4.03;1.80;;;;;;;;;;5093500;28;20369;-74
2021/06/14 12:32:20;;;;;;;5.07;1.85;;;;;;;;;;5094890;28;20391;-73
2021/06/14 12:34:47;;;;;;;3.40;1.50;;;;;;;;;;5093852;28;20024;-72
2021/06/14 12:37:16;;;;;;;8.05;1.48;;;;;;;;;;5094939;28;20107;-73
2021/06/14 12:39:43;;;;;;;6.95;1.50;;;;;;;;;;5095471;28;20018;-72
2021/06/14 12:42:16;;;;;;;1.90;1.10;;;;;;;;;;5094233;28;20016;-74
2021/06/14 12:45:03;;;;;;;9.85;3.20;;;;;;;;;;5092823;28;20035;-73
2021/06/14 12:47:30;;;;;;;4.47;1.52;;;;;;;;;;5094661;28;20081;-71
2021/06/14 12:49:57;;;;;;;4.28;1.40;;;;;;;;;;5094616;28;20495;-71
2021/06/14 12:52:25;;;;;;;6.47;1.67;;;;;;;;;;5095002;28;20031;-71
2021/06/14 12:54:51;;;;;;;2.30;1.35;;;;;;;;;;5086268;28;20020;-72
2021/06/14 12:57:17;;;;;;;13.63;1.77;;;;;;;;;;5094546;28;20063;-71
2021/06/14 12:59:45;;;;;;;3.63;1.90;;;;;;;;;;5094959;28;20024;-71
2021/06/14 13:02:15;;;;;;;2.00;1.23;;;;;;;;;;5094748;28;20155;-72
2021/06/14 13:04:43;;;;;;;3.20;1.50;;;;;;;;;;5094403;28;20132;-72
2021/06/14 13:07:17;;;;;;;2.08;1.20;;;;;;;;;;5094616;28;20529;-71
2021/06/14 13:09:44;;;;;;;3.33;1.50;;;;;;;;;;5093868;28;20036;-71
2021/06/14 13:12:10;;;;;;;4.97;1.73;;;;;;;;;;5094532;28;20020;-70
2021/06/14 13:14:36;;;;;;;2.35;1.30;;;;;;;;;;5094673;28;20028;-70
2021/06/14 13:17:03;;;;;;;5.47;1.30;;;;;;;;;;5094143;28;20039;-70
2021/06/14 13:19:29;;;;;;;6.88;1.65;;;;;;;;;;5094420;28;20020;-70
2021/06/14 13:21:57;;;;;;;4.88;1.50;;;;;;;;;;5094101;28;20055;-70
2021/06/14 13:24:23;;;;;;;6.78;1.20;;;;;;;;;;5092930;28;20484;-71
2021/06/14 13:26:51;;;;;;;3.97;1.23;;;;;;;;;;5090992;28;20124;-70
2021/06/14 13:29:18;;;;;;;5.93;2.67;;;;;;;;;;5092538;28;20028;-72
2021/06/14 13:31:46;;;;;;;5.38;1.70;;;;;;;;;;5091278;28;20016;-71
2021/06/14 13:34:23;;;;;;;2.22;0.90;;;;;;;;;;5092872;28;20469;-71
2021/06/14 13:36:53;;;;;;;1.75;1.20;;;;;;;;;;5092809;28;20016;-71
2021/06/14 13:39:20;;;;;;;7.38;1.35;;;;;;;;;;5091269;28;20028;-71
2021/06/14 13:41:48;;;;;;;4.03;1.23;;;;;;;;;;5094060;28;20020;-71
2021/06/14 13:44:15;;;;;;;2.40;0.90;;;;;;;;;;5093969;28;20609;-70
2021/06/14 13:46:42;;;;;;;4.32;1.20;;;;;;;;;;5092178;28;20024;-70
2021/06/14 13:49:09;;;;;;;5.97;1.30;;;;;;;;;;5092488;28;20119;-70
2021/06/14 13:51:36;;;;;;;5.68;1.60;;;;;;;;;;5093909;28;20020;-71
2021/06/14 13:54:03;;;;;;;3.70;1.30;;;;;;;;;;5093665;28;20539;-71
2021/06/14 13:56:33;;;;;;;2.88;0.95;;;;;;;;;;5093687;28;20111;-71
2021/06/14 13:58:59;;;;;;;4.63;1.33;;;;;;;;;;5093237;28;20023;-71
2021/06/14 14:01:27;;;;;;;1.38;0.90;;;;;;;;;;5092273;28;20127;-71
2021/06/14 14:04:03;;;;;;;2.17;1.23;;;;;;;;;;5092180;28;20016;-71
2021/06/14 14:06:30;;;;;;;6.15;1.60;;;;;;;;;;5091676;28;20035;-71
2021/06/14 14:08:57;;;;;;;3.20;1.52;;;;;;;;;;5093174;28;20044;-71
2021/06/14 14:11:23;;;;;;;3.70;1.52;;;;;;;;;;5093431;28;20021;-71
2021/06/14 14:13:57;;;;;;;3.55;1.45;;;;;;;;;;5091890;28;20154;-71
2021/06/14 14:16:23;;;;;;;6.57;1.67;;;;;;;;;;5092112;28;20024;-71
2021/06/14 14:18:49;;;;;;;11.02;2.20;;;;;;;;;;5093264;28;20095;-71
2021/06/14 14:21:15;;;;;;;1.65;1.17;;;;;;;;;;5091547;28;20027;-71
2021/06/14 14:23:41;;;;;;;3.22;1.25;;;;;;;;;;5093296;28;20110;-71
2021/06/14 14:26:07;;;;;;;3.60;1.30;;;;;;;;;;5093198;28;20484;-71
2021/06/14 14:28:34;;;;;;;2.53;1.30;;;;;;;;;;5091474;28;20514;-71
2021/06/14 14:31:00;;;;;;;3.22;1.42;;;;;;;;;;5093126;28;20650;-71
2021/06/14 14:33:26;;;;;;;4.85;1.23;;;;;;;;;;5093284;28;20020;-71
2021/06/14 14:35:52;;;;;;;5.55;2.17;;;;;;;;;;5092908;28;20069;-71
2021/06/14 14:38:19;;;;;;;6.10;1.30;;;;;;;;;;5093048;28;20034;-71
2021/06/14 14:40:45;;;;;;;2.63;1.27;;;;;;;;;;5092945;28;20392;-71
2021/06/14 14:43:12;;;;;;;4.65;1.42;;;;;;;;;;5092211;28;20048;-71
2021/06/14 14:45:40;;;;;;;4.97;1.40;;;;;;;;;;5091581;28;20028;-72
2021/06/14 14:48:08;;;;;;;5.15;1.55;;;;;;;;;;5092423;28;20027;-71
2021/06/14 14:50:39;;;;;;;3.10;1.33;;;;;;;;;;5092821;28;20357;-72
2021/06/14 14:53:05;;;;;;;4.18;1.45;;;;;;;;;;5093053;28;20034;-72
2021/06/14 14:55:32;;;;;;;3.22;1.42;;;;;;;;;;5092576;28;20048;-72
2021/06/14 14:58:00;;;;;;;3.33;1.25;;;;;;;;;;5091428;28;20028;-71
2021/06/14 15:00:27;;;;;;;2.72;1.10;;;;;;;;;;5092687;28;20495;-71
2021/06/14 15:02:53;;;;;;;3.33;1.15;;;;;;;;;;5090995;28;20374;-71
2021/06/14 15:05:20;;;;;;;3.78;0.80;;;;;;;;;;5092600;28;20527;-70
2021/06/14 15:07:47;;;;;;;5.80;1.13;;;;;;;;;;5092398;28;20488;-70
2021/06/14 15:10:15;;;;;;;2.92;1.08;;;;;;;;;;5088465;28;20724;-72
2021/06/14 15:12:41;;;;;;;3.60;0.82;;;;;;;;;;5092699;28;20209;-70
2021/06/14 15:15:09;;;;;;;2.70;1.00;;;;;;;;;;5092603;28;20050;-70
2021/06/14 15:17:39;;;;;;;2.33;0.85;;;;;;;;;;5092019;28;20027;-71
2021/06/14 15:20:07;;;;;;;5.88;1.35;;;;;;;;;;5092359;28;20035;-69
2021/06/14 15:22:33;;;;;;;1.65;0.90;;;;;;;;;;5092521;28;20133;-70
2021/06/14 15:24:59;;;;;;;2.53;0.90;;;;;;;;;;5092165;28;20036;-69
2021/06/14 15:27:25;;;;;;;3.25;1.10;;;;;;;;;;5091185;28;20059;-69
2021/06/14 15:29:52;;;;;;;3.13;1.23;;;;;;;;;;5091206;28;20027;-69
2021/06/14 15:32:18;;;;;;;3.13;1.20;;;;;;;;;;5092167;28;20026;-69
2021/06/14 15:34:44;;;;;;;3.17;1.52;;;;;;;;;;5091272;28;20077;-69
2021/06/14 15:37:10;;;;;;;5.30;1.63;;;;;;;;;;5092227;28;20025;-70
2021/06/14 15:39:37;;;;;;;2.63;1.30;;;;;;;;;;5092256;28;20020;-72
2021/06/14 15:42:05;;;;;;;3.58;1.85;;;;;;;;;;5092141;28;20057;-69
2021/06/14 15:44:32;;;;;;;2.42;1.63;;;;;;;;;;5091948;28;20032;-72
2021/06/14 15:46:58;;;;;;;3.13;1.65;;;;;;;;;;5092159;28;20020;-72
2021/06/14 15:49:24;;;;;;;2.67;1.45;;;;;;;;;;5092176;28;20077;-72
2021/06/14 15:51:50;;;;;;;2.75;1.40;;;;;;;;;;5091877;28;20047;-72
2021/06/14 15:54:16;;;;;;;5.10;1.70;;;;;;;;;;5092841;28;20028;-70
2021/06/14 15:56:43;;;;;;;5.55;1.83;;;;;;;;;;5094652;28;20016;-70
2021/06/14 15:59:09;;;;;;;6.10;1.58;;;;;;;;;;5095466;28;20031;-71
2021/06/14 16:01:35;;;;;;;6.03;1.42;;;;;;;;;;5095928;28;20016;-70
2021/06/14 16:04:02;;;;;;;4.00;1.60;;;;;;;;;;5095759;28;20030;-70
2021/06/14 16:06:28;;;;;;;2.45;1.63;;;;;;;;;;5094070;28;20020;-71
2021/06/14 16:08:55;;;;;;;4.68;1.63;;;;;;;;;;5095413;28;20048;-71
2021/06/14 16:12:55;;;;;;;3.92;1.67;;;;;;;;;;5126101;27;20380;-71
2021/06/14 16:15:22;;;;;;;3.20;1.60;;;;;;;;;;5110686;28;20030;-71
2021/06/14 16:17:48;;;;;;;5.20;1.88;;;;;;;;;;5109169;28;20103;-71
2021/06/14 16:20:16;;;;;;;8.73;1.98;;;;;;;;;;5109892;28;20027;-71
2021/06/14 16:24:03;;;;;;;5.75;1.90;;;;;;;;;;5126189;27;20400;-71
2021/06/14 16:26:29;;;;;;;4.85;2.03;;;;;;;;;;5110050;28;20035;-71
2021/06/14 16:29:36;;;;;;;3.70;1.63;;;;;;;;;;5126280;27;20377;-70
2021/06/14 16:32:02;;;;;;;3.33;2.08;;;;;;;;;;5109238;28;20345;-70
2021/06/14 16:34:28;;;;;;;4.53;1.70;;;;;;;;;;5108627;28;20537;-69
2021/06/14 16:36:55;;;;;;;5.35;1.85;;;;;;;;;;5110313;28;20038;-72
2021/06/14 16:39:21;;;;;;;2.92;1.45;;;;;;;;;;5108942;28;20035;-72
2021/06/14 16:41:48;;;;;;;3.20;1.50;;;;;;;;;;5109860;28;20027;-71
2021/06/14 16:44:14;;;;;;;7.38;2.15;;;;;;;;;;5110040;28;20020;-70